Time;durP1;ratioP1;P1;durP2;ratioP2;P2;SDS_P1;SDS_P2;PMS_P1;PMS_P2;Temp;Humidity;BMP_temperature;BMP_pressure;BME280_temperature;BME280_humidity;BME280_pressure;Samples;Min_cycle;Max_cycle;Signal;HPM_P1;HPM_P2
2023/08/02 00:01:45;;;;;;;5.07;1.48;;;;;;;17.79;100.00;99277.25;5087489;28;20039;-77
2023/08/02 00:04:11;;;;;;;3.92;1.50;;;;;;;17.78;100.00;99281.06;5053196;28;20033;-77
2023/08/02 00:06:36;;;;;;;5.03;1.48;;;;;;;17.77;100.00;99274.00;5052544;28;20482;-77
2023/08/02 00:09:03;;;;;;;4.40;1.50;;;;;;;17.72;100.00;99280.28;5069363;28;20029;-77
2023/08/02 00:11:28;;;;;;;3.20;1.50;;;;;;;17.68;100.00;99279.22;5096529;28;20040;-77
2023/08/02 00:13:53;;;;;;;2.00;1.52;;;;;;;17.67;100.00;99274.03;5094117;28;20059;-77
2023/08/02 00:16:19;;;;;;;3.53;1.58;;;;;;;17.64;100.00;99272.69;5076602;28;20490;-76
2023/08/02 00:18:44;;;;;;;6.82;1.70;;;;;;;17.61;100.00;99271.38;5070746;28;20025;-76
2023/08/02 00:21:10;;;;;;;3.88;1.63;;;;;;;17.61;100.00;99270.53;5076689;28;20028;-76
2023/08/02 00:23:35;;;;;;;2.80;1.63;;;;;;;17.60;100.00;99279.81;5106216;28;20025;-77
2023/08/02 00:26:00;;;;;;;6.35;2.22;;;;;;;17.61;100.00;99273.25;5072822;28;20139;-77
2023/08/02 00:28:26;;;;;;;2.42;1.70;;;;;;;17.61;100.00;99273.25;5055940;28;20035;-77
2023/08/02 00:30:51;;;;;;;3.20;1.52;;;;;;;17.59;100.00;99280.91;5055914;28;20032;-76
2023/08/02 00:33:17;;;;;;;3.50;1.88;;;;;;;17.51;100.00;99287.75;5083818;28;20024;-77
2023/08/02 00:35:44;;;;;;;2.92;1.77;;;;;;;17.52;100.00;99283.94;5092853;28;20031;-77
2023/08/02 00:38:10;;;;;;;3.60;1.60;;;;;;;17.53;100.00;99284.75;5094103;28;20099;-77
2023/08/02 00:40:35;;;;;;;2.55;1.60;;;;;;;17.54;100.00;99291.81;5092367;28;20558;-76
2023/08/02 00:43:00;;;;;;;3.33;1.70;;;;;;;17.52;100.00;99288.59;5072892;28;20475;-76
2023/08/02 00:45:26;;;;;;;8.18;1.92;;;;;;;17.48;100.00;99280.19;5055401;28;20032;-77
2023/08/02 00:47:51;;;;;;;3.80;1.50;;;;;;;17.55;100.00;99286.09;5055378;28;20114;-76
2023/08/02 00:50:20;;;;;;;5.07;1.83;;;;;;;17.55;100.00;99293.47;5072212;28;20384;-77
2023/08/02 00:52:46;;;;;;;4.30;1.80;;;;;;;17.52;100.00;99283.94;5072269;28;20399;-76
2023/08/02 00:55:11;;;;;;;2.63;1.65;;;;;;;17.55;100.00;99288.00;5039307;28;20029;-77
2023/08/02 00:57:37;;;;;;;5.38;1.60;;;;;;;17.45;100.00;99266.31;5074068;28;20671;-76
2023/08/02 01:00:03;;;;;;;4.43;1.80;;;;;;;17.44;100.00;99264.69;5054983;28;20398;-77
2023/08/02 01:02:28;;;;;;;3.80;1.83;;;;;;;17.57;100.00;99291.25;5072731;28;20470;-76
2023/08/02 01:04:54;;;;;;;5.78;1.95;;;;;;;17.45;100.00;99266.31;5055044;28;20127;-76
2023/08/02 01:07:43;;;;;;;3.97;1.70;;;;;;;17.62;100.00;99283.06;5071556;28;20060;-76
2023/08/02 01:10:30;;;;;;;2.60;1.77;;;;;;;17.63;100.00;99289.31;5071578;28;20082;-77
2023/08/02 01:12:57;;;;;;;2.72;1.70;;;;;;;17.55;100.00;99269.78;5072532;28;20027;-76
2023/08/02 01:15:26;;;;;;;4.85;1.77;;;;;;;17.41;100.00;99249.75;5071732;28;20119;-76
2023/08/02 01:17:53;;;;;;;8.75;2.08;;;;;;;17.61;100.00;99284.97;5072459;28;20020;-76
2023/08/02 01:20:18;;;;;;;4.00;1.70;;;;;;;17.60;100.00;99296.13;5071609;28;20092;-77
2023/08/02 01:22:43;;;;;;;8.38;2.00;;;;;;;17.58;100.00;99290.97;5071401;28;20501;-76
2023/08/02 01:25:09;;;;;;;4.00;1.80;;;;;;;17.50;100.00;99279.88;5054607;28;20043;-77
2023/08/02 01:27:42;;;;;;;3.70;1.90;;;;;;;17.35;100.00;99251.69;5053679;28;20032;-76
2023/08/02 01:30:13;;;;;;;3.28;1.85;;;;;;;17.42;100.00;99264.13;5072482;28;20024;-77
2023/08/02 01:32:39;;;;;;;3.45;1.50;;;;;;;17.53;100.00;99284.75;5072390;28;20103;-77
2023/08/02 01:35:05;;;;;;;4.95;1.90;;;;;;;17.38;100.00;99255.75;5060211;28;20023;-77
2023/08/02 01:37:32;;;;;;;6.45;2.05;;;;;;;17.51;100.00;99282.31;5113368;28;20012;-76
2023/08/02 01:39:58;;;;;;;8.45;2.17;;;;;;;17.57;100.00;99281.19;5096130;28;20033;-76
2023/08/02 01:42:23;;;;;;;6.20;2.20;;;;;;;17.59;100.00;99278.19;5094604;28;20035;-77
2023/08/02 01:44:48;;;;;;;4.65;3.63;;;;;;;17.60;100.00;99274.38;5094544;28;20478;-77
2023/08/02 01:47:16;;;;;;;7.90;5.47;;;;;;;17.61;100.00;99276.81;5094769;28;20063;-77
2023/08/02 01:49:41;;;;;;;6.65;3.10;;;;;;;17.63;100.00;99284.69;5094268;28;20518;-76
2023/08/02 01:52:07;;;;;;;4.53;3.67;;;;;;;17.58;100.00;99260.22;5094657;28;20070;-77
2023/08/02 01:54:32;;;;;;;6.32;4.97;;;;;;;17.66;100.00;99281.41;5112401;28;20126;-76
2023/08/02 01:56:58;;;;;;;5.63;4.57;;;;;;;17.69;100.00;99280.84;5094903;28;20164;-77
2023/08/02 01:59:23;;;;;;;6.07;4.38;;;;;;;17.68;100.00;99275.66;5111419;28;20362;-77
2023/08/02 02:01:48;;;;;;;13.93;9.48;;;;;;;17.66;100.00;99278.69;5094167;28;20035;-76
2023/08/02 02:04:14;;;;;;;17.10;13.05;;;;;;;17.67;100.00;99269.41;5082616;28;20039;-76
2023/08/02 02:06:39;;;;;;;11.10;9.02;;;;;;;17.62;100.00;99272.19;5075304;28;20036;-77
2023/08/02 02:09:04;;;;;;;12.93;9.20;;;;;;;17.49;100.00;99248.34;5053586;28;20151;-77
2023/08/02 02:11:30;;;;;;;11.73;8.68;;;;;;;17.61;100.00;99281.41;5053427;28;20040;-77
2023/08/02 02:13:55;;;;;;;13.38;9.13;;;;;;;17.48;100.00;99263.03;5037611;28;20029;-77
2023/08/02 02:16:21;;;;;;;11.65;8.63;;;;;;;17.63;100.00;99279.25;5070545;28;20027;-77
2023/08/02 02:18:46;;;;;;;11.10;8.50;;;;;;;17.53;100.00;99265.72;5055273;28;20028;-76
2023/08/02 02:21:11;;;;;;;9.38;7.72;;;;;;;17.63;100.00;99278.44;5073883;28;20035;-76
2023/08/02 02:23:37;;;;;;;9.77;7.78;;;;;;;17.61;100.00;99281.41;5090464;28;20704;-77
2023/08/02 02:26:02;;;;;;;13.07;8.93;;;;;;;17.58;100.00;99277.38;5073610;28;20113;-77
2023/08/02 02:28:28;;;;;;;13.20;8.48;;;;;;;17.59;100.00;99272.75;5073409;28;20023;-77
2023/08/02 02:30:53;;;;;;;9.98;8.00;;;;;;;17.51;100.00;99260.53;5073374;28;20028;-76
2023/08/02 02:33:18;;;;;;;11.60;8.63;;;;;;;17.59;100.00;99270.84;5078389;28;20028;-77
2023/08/02 02:35:44;;;;;;;13.38;8.38;;;;;;;17.53;100.00;99257.56;5071541;28;20067;-77
2023/08/02 02:38:09;;;;;;;10.38;7.38;;;;;;;17.56;100.00;99267.88;5036718;28;20021;-76
2023/08/02 02:40:34;;;;;;;10.05;7.00;;;;;;;17.56;100.00;99257.00;5070473;28;20483;-76
2023/08/02 02:43:00;;;;;;;14.25;6.63;;;;;;;17.52;100.00;99262.19;5070918;28;20052;-77
2023/08/02 02:45:25;;;;;;;10.23;7.03;;;;;;;17.49;100.00;99270.09;5059662;28;20062;-76
2023/08/02 02:47:51;;;;;;;9.70;7.00;;;;;;;17.19;100.00;99227.63;5089728;28;20036;-77
2023/08/02 02:50:17;;;;;;;12.80;6.97;;;;;;;17.28;100.00;99247.66;5082916;28;20052;-77
2023/08/02 02:52:43;;;;;;;8.98;6.95;;;;;;;17.14;100.00;99236.59;5071142;28;20055;-77
2023/08/02 02:55:09;;;;;;;8.27;6.35;;;;;;;17.28;100.00;99258.53;5070180;28;20150;-76
2023/08/02 02:57:35;;;;;;;9.13;6.10;;;;;;;17.27;100.00;99260.44;5053254;28;20024;-76
2023/08/02 03:00:00;;;;;;;6.55;5.40;;;;;;;17.24;100.00;99261.00;5081658;28;20039;-77
2023/08/02 03:02:26;;;;;;;6.57;4.93;;;;;;;17.11;100.00;99242.59;5089921;28;20031;-77
2023/08/02 03:04:51;;;;;;;9.32;5.25;;;;;;;17.16;100.00;99256.16;5073267;28;20063;-77
2023/08/02 03:07:17;;;;;;;6.78;4.70;;;;;;;17.13;100.00;99256.72;5091259;28;20035;-76
2023/08/02 03:09:42;;;;;;;6.90;4.57;;;;;;;17.00;100.00;99243.75;5082766;28;20040;-76
2023/08/02 03:12:08;;;;;;;8.20;4.65;;;;;;;17.07;100.00;99266.78;5085111;28;20036;-76
2023/08/02 03:14:33;;;;;;;7.65;4.00;;;;;;;17.01;100.00;99262.47;5090934;28;20032;-77
2023/08/02 03:16:59;;;;;;;6.55;4.32;;;;;;;16.94;100.00;99261.16;5092222;28;20028;-77
2023/08/02 03:19:24;;;;;;;7.40;4.25;;;;;;;16.78;100.00;99246.81;5052806;28;20029;-77
2023/08/02 03:21:50;;;;;;;4.82;3.72;;;;;;;16.82;100.00;99264.19;5053007;28;20533;-76
2023/08/02 03:24:15;;;;;;;7.65;3.70;;;;;;;16.72;100.00;99254.16;5065563;28;20036;-76
2023/08/02 03:26:40;;;;;;;8.65;3.80;;;;;;;16.77;100.00;99256.88;5089569;28;20039;-77
2023/08/02 03:29:06;;;;;;;5.43;3.75;;;;;;;16.65;100.00;99246.31;5090443;28;20024;-76
2023/08/02 03:31:31;;;;;;;4.20;3.38;;;;;;;16.75;100.00;99263.69;5072838;28;20113;-76
2023/08/02 03:33:57;;;;;;;7.28;3.60;;;;;;;16.73;100.00;99268.56;5070208;28;20550;-77
2023/08/02 03:36:22;;;;;;;5.85;3.50;;;;;;;16.71;100.00;99266.09;5071176;28;20383;-77
2023/08/02 03:38:47;;;;;;;4.05;3.50;;;;;;;16.74;100.00;99265.56;5052989;28;20056;-76
2023/08/02 03:41:13;;;;;;;5.15;3.08;;;;;;;16.73;100.00;99255.78;5069949;28;20028;-76
2023/08/02 03:43:38;;;;;;;8.38;2.88;;;;;;;16.75;100.00;99267.19;5070527;28;20036;-77
2023/08/02 03:46:04;;;;;;;7.03;2.60;;;;;;;16.74;100.00;99260.13;5073859;28;20575;-76
2023/08/02 03:48:31;;;;;;;3.40;2.33;;;;;;;16.75;100.00;99258.25;5056907;28;20028;-76
2023/08/02 03:50:56;;;;;;;7.60;2.30;;;;;;;16.79;100.00;99260.16;5073328;28;20045;-76
2023/08/02 03:53:23;;;;;;;3.35;2.45;;;;;;;16.77;100.00;99247.91;5090285;28;20543;-76
2023/08/02 03:55:48;;;;;;;6.35;2.90;;;;;;;16.90;100.00;99269.88;5074664;28;20016;-76
2023/08/02 03:58:13;;;;;;;5.25;2.40;;;;;;;16.97;100.00;99266.03;5040179;28;20111;-76
2023/08/02 04:00:39;;;;;;;5.25;2.75;;;;;;;16.99;100.00;99272.03;5074389;28;20430;-76
2023/08/02 04:03:04;;;;;;;6.10;2.70;;;;;;;17.03;100.00;99270.38;5073336;28;20029;-76
2023/08/02 04:05:30;;;;;;;7.57;2.60;;;;;;;17.05;100.00;99260.84;5073502;28;20490;-76
2023/08/02 04:07:55;;;;;;;5.10;2.60;;;;;;;17.14;100.00;99267.28;5073220;28;20047;-76
2023/08/02 04:10:21;;;;;;;4.78;2.50;;;;;;;17.20;100.00;99265.38;5056786;28;20051;-76
2023/08/02 04:12:46;;;;;;;4.10;2.40;;;;;;;17.27;100.00;99265.88;5055877;28;20264;-76
2023/08/02 04:15:11;;;;;;;3.67;2.30;;;;;;;17.33;100.00;99272.09;5039640;28;20127;-76
2023/08/02 04:17:37;;;;;;;3.30;2.08;;;;;;;17.38;100.00;99270.16;5056012;28;20032;-76
2023/08/02 04:20:02;;;;;;;6.20;2.50;;;;;;;16.93;100.00;99191.63;5056086;28;20123;-77
2023/08/02 04:22:31;;;;;;;5.13;2.58;;;;;;;17.45;100.00;99272.56;5074446;28;20125;-76
2023/08/02 04:24:58;;;;;;;7.55;2.70;;;;;;;17.51;100.00;99276.06;5075518;28;20028;-76
2023/08/02 04:27:24;;;;;;;7.50;2.92;;;;;;;17.47;100.00;99273.09;5074569;28;20422;-77
2023/08/02 04:29:50;;;;;;;6.30;2.63;;;;;;;17.58;100.00;99268.38;5055884;28;20040;-76
2023/08/02 04:32:15;;;;;;;2.95;2.42;;;;;;;17.62;100.00;99258.59;5082091;28;20462;-76
2023/08/02 04:34:41;;;;;;;4.82;2.33;;;;;;;17.69;100.00;99261.78;5072609;28;20442;-77
2023/08/02 04:37:06;;;;;;;6.70;2.50;;;;;;;17.71;100.00;99258.78;5062371;28;20080;-77
2023/08/02 04:39:32;;;;;;;6.15;2.40;;;;;;;17.73;100.00;99265.56;5092214;28;20521;-77
2023/08/02 04:42:02;;;;;;;3.47;2.10;;;;;;;17.67;100.00;99253.09;5079251;28;20517;-76
2023/08/02 04:44:28;;;;;;;4.60;2.38;;;;;;;17.70;100.00;99268.84;5101067;28;20031;-76
2023/08/02 04:46:53;;;;;;;4.50;2.05;;;;;;;17.36;100.00;99209.00;5093524;28;20523;-77
2023/08/02 04:49:18;;;;;;;4.57;2.10;;;;;;;17.76;100.00;99269.63;5058837;28;20509;-77
2023/08/02 04:51:44;;;;;;;2.72;1.98;;;;;;;17.77;100.00;99261.19;5075468;28;20235;-77
2023/08/02 04:54:09;;;;;;;2.63;2.08;;;;;;;17.68;100.00;99248.47;5094027;28;20473;-76
2023/08/02 04:56:35;;;;;;;4.15;2.00;;;;;;;17.60;100.00;99219.97;5075457;28;20032;-76
2023/08/02 04:59:00;;;;;;;3.20;1.73;;;;;;;17.84;100.00;99264.41;5092605;28;20157;-77
2023/08/02 05:01:25;;;;;;;3.30;2.20;;;;;;;17.88;100.00;99270.13;5075302;28;20036;-77
2023/08/02 05:03:51;;;;;;;4.15;2.00;;;;;;;17.86;100.00;99266.84;5058614;28;20054;-76
2023/08/02 05:06:16;;;;;;;3.25;2.00;;;;;;;17.89;100.00;99276.38;5093861;28;20368;-76
2023/08/02 05:08:42;;;;;;;8.52;2.30;;;;;;;17.96;100.00;99274.13;5091660;28;20083;-76
2023/08/02 05:11:08;;;;;;;3.63;1.90;;;;;;;17.92;100.00;99263.00;5072837;28;20047;-76
2023/08/02 05:13:34;;;;;;;4.45;2.00;;;;;;;17.93;100.00;99252.94;5088927;28;20033;-76
2023/08/02 05:15:59;;;;;;;2.72;1.80;;;;;;;18.09;100.00;99270.75;5089218;28;20032;-76
2023/08/02 05:18:25;;;;;;;3.65;1.90;;;;;;;18.18;100.00;99270.91;5093059;28;20039;-76
2023/08/02 05:20:50;;;;;;;4.40;1.80;;;;;;;18.11;100.00;99248.66;5089573;28;20036;-76
2023/08/02 05:23:16;;;;;;;5.82;1.90;;;;;;;18.32;100.00;99266.44;5085962;28;20178;-76
2023/08/02 05:25:41;;;;;;;3.08;1.90;;;;;;;18.28;100.00;99244.44;5093581;28;20077;-76
2023/08/02 05:28:07;;;;;;;3.10;1.95;;;;;;;18.29;100.00;99231.63;5091626;28;20042;-76
2023/08/02 05:30:34;;;;;;;3.67;1.85;;;;;;;18.41;100.00;99240.22;5093145;28;20020;-76
2023/08/02 05:33:00;;;;;;;4.40;1.75;;;;;;;18.52;100.00;99243.63;5099761;28;20475;-76
2023/08/02 05:35:25;;;;;;;2.33;1.83;;;;;;;18.66;100.00;99252.72;5092966;28;20024;-75
2023/08/02 05:37:54;;;;;;;4.50;1.75;;;;;;;18.79;100.00;99256.69;5075218;28;20034;-76
2023/08/02 05:40:20;;;;;;;3.00;1.88;;;;;;;18.92;100.00;99249.72;5075121;28;20036;-76
2023/08/02 05:42:45;;;;;;;3.80;2.13;;;;;;;18.83;100.00;99232.38;5091319;28;20032;-76
2023/08/02 05:45:11;;;;;;;5.05;2.00;;;;;;;19.04;100.00;99252.84;5092802;28;20031;-76
2023/08/02 05:47:36;;;;;;;2.45;1.63;;;;;;;19.08;100.00;99253.88;5092520;28;20208;-76
2023/08/02 05:50:03;;;;;;;3.65;1.90;;;;;;;19.15;100.00;99259.75;5086368;28;20109;-76
2023/08/02 05:52:28;;;;;;;5.05;1.70;;;;;;;19.19;100.00;99265.44;5093196;28;20030;-76
2023/08/02 05:54:53;;;;;;;4.05;1.85;;;;;;;19.19;100.00;99243.63;5091566;28;20044;-76
2023/08/02 05:57:19;;;;;;;5.32;1.85;;;;;;;19.25;100.00;99258.81;5091717;28;20024;-76
2023/08/02 05:59:44;;;;;;;4.00;1.88;;;;;;;19.30;100.00;99252.47;5092941;28;20106;-75
2023/08/02 06:02:10;;;;;;;3.17;1.98;;;;;;;19.36;100.00;99248.56;5074506;28;20081;-76
2023/08/02 06:04:39;;;;;;;5.93;1.85;;;;;;;19.46;100.00;99259.31;5091453;28;20495;-76
2023/08/02 06:07:05;;;;;;;5.60;1.50;;;;;;;19.47;100.00;99250.84;5092249;28;20103;-75
2023/08/02 06:09:31;;;;;;;3.33;1.80;;;;;;;19.62;100.00;99266.16;5092226;28;20099;-76
2023/08/02 06:11:57;;;;;;;4.15;1.70;;;;;;;19.57;100.00;99240.88;5091394;28;20505;-76
2023/08/02 06:14:22;;;;;;;3.42;1.77;;;;;;;19.67;100.00;99249.75;5092451;28;20073;-76
2023/08/02 06:16:48;;;;;;;5.43;1.70;;;;;;;19.71;100.00;99252.69;5090952;28;20027;-77
2023/08/02 06:19:14;;;;;;;5.13;1.60;;;;;;;19.86;100.00;99263.34;5101409;28;20028;-77
2023/08/02 06:21:39;;;;;;;3.35;1.55;;;;;;;19.97;100.00;99258.56;5093871;28;20035;-77
2023/08/02 06:24:05;;;;;;;2.33;1.50;;;;;;;20.05;100.00;99263.31;5071632;28;20411;-77
2023/08/02 06:26:30;;;;;;;2.83;1.50;;;;;;;20.16;100.00;99264.78;5074692;28;20561;-77
2023/08/02 06:28:56;;;;;;;4.18;1.30;;;;;;;20.19;100.00;99263.34;5094680;28;20478;-77
2023/08/02 06:31:21;;;;;;;3.22;1.50;;;;;;;20.31;100.00;99277.34;5096061;28;20048;-76
2023/08/02 06:33:47;;;;;;;3.28;1.42;;;;;;;20.36;100.00;99270.97;5115019;28;20027;-77
2023/08/02 06:36:13;;;;;;;1.90;1.38;;;;;;;20.40;100.00;99274.72;5093265;28;20032;-77
2023/08/02 06:38:39;;;;;;;2.60;1.40;;;;;;;20.46;100.00;99261.78;5107427;28;20063;-77
2023/08/02 06:41:04;;;;;;;1.58;1.30;;;;;;;20.55;100.00;99271.72;5089112;28;20032;-77
2023/08/02 06:43:30;;;;;;;2.75;1.40;;;;;;;20.53;100.00;99238.44;5088916;28;20039;-77
2023/08/02 06:45:56;;;;;;;4.15;1.40;;;;;;;20.82;100.00;99261.91;5088964;28;20024;-77
2023/08/02 06:48:24;;;;;;;2.80;1.40;;;;;;;21.01;100.00;99262.59;5090369;28;20024;-76
2023/08/02 06:50:51;;;;;;;3.30;1.55;;;;;;;21.34;100.00;99270.66;5108210;28;20130;-78
2023/08/02 06:53:17;;;;;;;4.20;1.30;;;;;;;21.52;100.00;99268.91;5092621;28;20135;-77
2023/08/02 06:55:42;;;;;;;4.90;1.30;;;;;;;21.63;100.00;99258.53;5093778;28;20051;-76
2023/08/02 06:58:08;;;;;;;3.33;1.27;;;;;;;21.62;100.00;99270.59;5094231;28;20132;-77
2023/08/02 07:00:33;;;;;;;2.00;1.00;;;;;;;21.54;100.00;99247.50;5093862;28;20035;-77
2023/08/02 07:03:00;;;;;;;3.20;0.90;;;;;;;21.75;99.84;99261.50;5093333;28;20437;-77
2023/08/02 07:05:28;;;;;;;3.78;1.13;;;;;;;21.94;99.29;99253.91;5095599;28;20020;-77
2023/08/02 07:07:55;;;;;;;2.08;1.13;;;;;;;22.38;97.13;99248.69;5091267;28;20032;-77
2023/08/02 07:10:20;;;;;;;2.20;0.80;;;;;;;22.62;95.48;99264.78;5091380;28;20498;-77
2023/08/02 07:12:48;;;;;;;3.95;1.00;;;;;;;22.32;93.97;99264.50;5090604;28;20118;-77
2023/08/02 07:15:14;;;;;;;1.50;0.80;;;;;;;22.20;93.77;99267.00;5090541;28;20050;-77
2023/08/02 07:17:39;;;;;;;3.40;1.30;;;;;;;22.36;92.99;99270.16;5090344;28;20561;-77
2023/08/02 07:20:05;;;;;;;2.83;1.02;;;;;;;22.44;92.38;99272.91;5091547;28;20028;-77
2023/08/02 07:22:31;;;;;;;4.40;1.08;;;;;;;22.52;91.66;99268.63;5090321;28;20131;-76
2023/08/02 07:24:56;;;;;;;2.50;1.00;;;;;;;22.67;90.90;99265.44;5092748;28;20051;-77
2023/08/02 07:27:21;;;;;;;3.85;1.17;;;;;;;22.64;91.10;99268.00;5091263;28;20060;-76
2023/08/02 07:29:51;;;;;;;1.20;0.80;;;;;;;22.60;90.71;99275.25;5090671;28;20084;-75
2023/08/02 07:32:20;;;;;;;7.47;1.30;;;;;;;22.44;91.14;99269.38;5090556;28;20035;-75
2023/08/02 07:34:46;;;;;;;4.57;0.90;;;;;;;22.39;91.64;99270.34;5090239;28;20549;-76
2023/08/02 07:37:12;;;;;;;1.90;0.70;;;;;;;22.31;92.01;99273.00;5107046;28;20040;-76
2023/08/02 07:39:38;;;;;;;3.60;1.05;;;;;;;22.35;91.72;99274.81;5090370;28;20031;-76
2023/08/02 07:42:04;;;;;;;2.47;0.98;;;;;;;22.14;92.21;99262.75;5073305;28;20040;-75
2023/08/02 07:44:29;;;;;;;2.67;0.85;;;;;;;22.10;93.19;99278.19;5091215;28;20393;-76
2023/08/02 07:46:55;;;;;;;3.53;0.90;;;;;;;21.75;93.84;99242.34;5090100;28;20115;-75
2023/08/02 07:49:20;;;;;;;4.43;1.48;;;;;;;21.75;94.57;99276.00;5089921;28;20028;-77
2023/08/02 07:51:45;;;;;;;7.15;1.35;;;;;;;21.61;94.99;99271.72;5089715;28;20151;-76
2023/08/02 07:54:11;;;;;;;3.83;1.00;;;;;;;21.38;95.53;99263.47;5108148;28;20032;-76
2023/08/02 07:56:36;;;;;;;2.20;0.88;;;;;;;21.32;95.14;99275.59;5090960;28;20028;-75
2023/08/02 07:59:02;;;;;;;1.90;0.93;;;;;;;21.27;95.56;99273.00;5089824;28;20401;-76
2023/08/02 08:01:27;;;;;;;1.40;0.88;;;;;;;21.23;95.85;99277.47;5106823;28;20081;-75
2023/08/02 08:03:53;;;;;;;2.42;1.02;;;;;;;21.16;95.94;99279.78;5106941;28;20035;-75
2023/08/02 08:06:23;;;;;;;2.25;0.90;;;;;;;20.96;95.83;99268.19;5089699;28;20031;-75
2023/08/02 08:08:50;;;;;;;1.55;0.80;;;;;;;21.07;96.20;99287.94;5091116;28;20035;-75
2023/08/02 08:11:15;;;;;;;2.20;0.90;;;;;;;20.95;96.68;99276.69;5089811;28;20045;-76
2023/08/02 08:13:41;;;;;;;4.03;1.30;;;;;;;21.01;96.29;99281.75;5072868;28;20071;-75
2023/08/02 08:16:07;;;;;;;1.73;0.82;;;;;;;21.12;96.32;99285.06;5091225;28;20493;-75
2023/08/02 08:18:33;;;;;;;6.40;1.20;;;;;;;21.11;96.39;99276.06;5090771;28;20024;-75
2023/08/02 08:21:01;;;;;;;2.83;0.98;;;;;;;21.53;95.44;99292.44;5089870;28;20483;-75
2023/08/02 08:23:27;;;;;;;3.78;1.08;;;;;;;21.60;94.80;99270.91;5089864;28;20049;-75
2023/08/02 08:25:53;;;;;;;3.78;1.20;;;;;;;21.66;95.10;99290.78;5090994;28;20387;-75
2023/08/02 08:28:18;;;;;;;3.60;1.00;;;;;;;21.63;95.09;99281.25;5090327;28;20483;-75
2023/08/02 08:30:43;;;;;;;3.47;1.20;;;;;;;21.42;96.14;99286.34;5090386;28;20112;-75
2023/08/02 08:33:10;;;;;;;6.40;1.33;;;;;;;21.39;95.55;99281.53;5094531;28;20031;-75
2023/08/02 08:35:36;;;;;;;3.03;1.00;;;;;;;21.63;93.60;99274.97;5110709;28;20031;-75
2023/08/02 08:38:02;;;;;;;3.80;0.88;;;;;;;21.91;92.10;99281.91;5093683;28;20482;-75
2023/08/02 08:40:27;;;;;;;2.00;0.82;;;;;;;22.35;90.56;99299.50;5094693;28;20153;-75
2023/08/02 08:42:54;;;;;;;5.43;0.88;;;;;;;22.51;87.91;99303.41;5093165;28;20032;-75
2023/08/02 08:45:24;;;;;;;1.60;0.70;;;;;;;22.57;85.51;99284.09;5094409;28;20072;-74
2023/08/02 08:47:51;;;;;;;1.52;0.70;;;;;;;22.58;84.44;99299.41;5095085;28;20031;-75
2023/08/02 08:50:19;;;;;;;3.53;0.88;;;;;;;22.15;85.87;99297.22;5092920;28;20051;-75
2023/08/02 08:52:47;;;;;;;3.63;1.05;;;;;;;22.03;87.11;99303.28;5092817;28;20020;-75
2023/08/02 08:55:14;;;;;;;1.80;0.80;;;;;;;22.11;85.76;99312.66;5092733;28;20056;-75
2023/08/02 08:57:41;;;;;;;3.03;0.80;;;;;;;22.03;84.83;99306.03;5092905;28;20078;-73
2023/08/02 09:00:11;;;;;;;1.90;0.65;;;;;;;22.04;85.11;99299.41;5076109;28;20028;-75
2023/08/02 09:02:41;;;;;;;2.33;0.93;;;;;;;22.07;85.45;99295.25;5092864;28;20145;-75
2023/08/02 09:05:08;;;;;;;2.95;0.90;;;;;;;22.00;86.63;99299.22;5092928;28;20039;-75
2023/08/02 09:07:34;;;;;;;3.58;0.90;;;;;;;22.07;86.40;99289.78;5075720;28;20119;-74
2023/08/02 09:09:59;;;;;;;2.75;0.95;;;;;;;21.94;86.40;99269.53;5092482;28;20592;-75
2023/08/02 09:12:25;;;;;;;4.05;1.00;;;;;;;21.87;86.90;99291.09;5092480;28;20069;-75
2023/08/02 09:15:04;;;;;;;1.48;0.70;;;;;;;21.85;87.28;99282.34;5092359;28;20030;-75
2023/08/02 09:17:51;;;;;;;3.17;1.20;;;;;;;21.70;86.25;99239.75;5092491;28;20024;-75
2023/08/02 09:20:18;;;;;;;3.78;1.27;;;;;;;22.16;84.63;99283.25;5094323;28;20493;-75
2023/08/02 09:22:44;;;;;;;3.50;1.17;;;;;;;22.40;83.96;99284.84;5092611;28;20020;-75
2023/08/02 09:25:21;;;;;;;2.53;0.90;;;;;;;22.08;84.76;99285.91;5092360;28;20034;-75
2023/08/02 09:27:47;;;;;;;2.83;1.08;;;;;;;21.77;85.98;99290.19;5092398;28;20177;-75
2023/08/02 09:30:22;;;;;;;2.83;1.00;;;;;;;21.83;85.49;99295.56;5092624;28;20043;-75
2023/08/02 09:33:00;;;;;;;2.80;0.77;;;;;;;22.16;82.96;99282.44;5093643;28;20368;-75
2023/08/02 09:35:26;;;;;;;4.53;0.88;;;;;;;21.94;83.67;99280.50;5094022;28;20035;-75
2023/08/02 09:37:52;;;;;;;2.45;0.88;;;;;;;21.83;84.69;99277.22;5102560;28;20033;-76
2023/08/02 09:40:17;;;;;;;2.90;1.17;;;;;;;21.83;85.14;99279.94;5072929;28;20047;-74
2023/08/02 09:42:42;;;;;;;2.42;0.90;;;;;;;21.83;85.48;99285.41;5071324;28;20036;-74
2023/08/02 09:45:08;;;;;;;4.38;0.90;;;;;;;21.77;85.64;99286.66;5072178;28;20483;-75
2023/08/02 09:47:34;;;;;;;4.70;1.00;;;;;;;21.53;85.15;99259.59;5084316;28;20032;-74
2023/08/02 09:50:16;;;;;;;2.10;0.80;;;;;;;21.42;84.22;99280.88;5072733;28;20503;-74
2023/08/02 09:52:41;;;;;;;3.38;1.30;;;;;;;21.65;85.74;99279.00;5088416;28;20032;-74
2023/08/02 09:55:08;;;;;;;2.55;1.00;;;;;;;21.64;85.50;99271.09;5085058;28;20397;-73
2023/08/02 09:57:33;;;;;;;2.97;1.23;;;;;;;21.64;84.92;99265.63;5074906;28;20031;-74
2023/08/02 10:00:04;;;;;;;3.85;1.10;;;;;;;21.66;85.32;99272.41;5092959;28;20039;-73
2023/08/02 10:02:30;;;;;;;3.67;1.00;;;;;;;21.54;85.83;99272.94;5093105;28;20119;-74
2023/08/02 10:04:57;;;;;;;2.47;0.93;;;;;;;21.51;85.62;99273.56;5093555;28;20028;-74
2023/08/02 10:07:38;;;;;;;3.53;1.00;;;;;;;21.57;85.34;99258.66;5092768;28;20055;-75
2023/08/02 10:10:12;;;;;;;3.17;1.00;;;;;;;21.78;83.95;99278.13;5094628;28;20423;-74
2023/08/02 10:12:38;;;;;;;2.90;1.00;;;;;;;21.72;83.55;99273.09;5096375;28;20035;-75
2023/08/02 10:15:04;;;;;;;3.20;1.00;;;;;;;21.90;83.71;99255.66;5054591;28;20037;-75
2023/08/02 10:17:31;;;;;;;2.55;1.20;;;;;;;21.99;85.14;99267.50;5088121;28;20025;-75
2023/08/02 10:20:00;;;;;;;4.20;1.30;;;;;;;21.96;85.66;99259.91;5071398;28;20081;-75
2023/08/02 10:22:26;;;;;;;3.53;1.08;;;;;;;22.24;84.85;99254.28;5088076;28;20028;-76
2023/08/02 10:24:52;;;;;;;2.92;1.10;;;;;;;22.33;84.54;99268.03;5087707;28;20522;-76
2023/08/02 10:27:19;;;;;;;2.67;1.13;;;;;;;22.23;83.79;99263.63;5071457;28;20041;-76
2023/08/02 10:29:46;;;;;;;1.30;0.80;;;;;;;22.14;82.66;99260.81;5090893;28;20077;-75
2023/08/02 10:32:13;;;;;;;1.85;0.93;;;;;;;21.97;80.27;99260.72;5073693;28;20423;-75
2023/08/02 10:34:39;;;;;;;2.45;1.00;;;;;;;22.30;80.73;99274.16;5106024;28;20093;-76
2023/08/02 10:37:05;;;;;;;3.42;1.02;;;;;;;22.49;79.90;99270.06;5091071;28;20024;-76
2023/08/02 10:39:46;;;;;;;1.73;0.70;;;;;;;22.56;78.03;99274.28;5088624;28;20016;-76
2023/08/02 10:42:12;;;;;;;1.45;0.90;;;;;;;22.26;78.11;99254.78;5091518;28;20058;-75
2023/08/02 10:44:57;;;;;;;2.40;0.80;;;;;;;22.46;78.33;99275.34;5089968;28;20038;-74
2023/08/02 10:47:24;;;;;;;1.95;0.80;;;;;;;22.63;77.16;99282.84;5092163;28;20020;-75
2023/08/02 10:49:49;;;;;;;2.78;0.80;;;;;;;22.63;76.27;99271.88;5090187;28;20211;-76
2023/08/02 10:52:28;;;;;;;2.30;0.70;;;;;;;22.54;75.16;99269.09;5073410;28;20114;-76
2023/08/02 10:55:17;;;;;;;2.38;0.70;;;;;;;22.36;74.94;99270.97;5079799;28;20032;-76
2023/08/02 10:57:54;;;;;;;1.42;0.63;;;;;;;22.33;74.65;99268.03;5084933;28;20042;-75
2023/08/02 11:00:25;;;;;;;1.90;0.77;;;;;;;22.24;73.87;99267.97;5085912;28;20040;-75
2023/08/02 11:02:52;;;;;;;2.85;0.60;;;;;;;22.43;74.21;99274.06;5070070;28;20031;-76
2023/08/02 11:05:41;;;;;;;1.90;0.70;;;;;;;22.58;72.95;99278.28;5073672;28;20028;-76
2023/08/02 11:08:08;;;;;;;2.05;0.60;;;;;;;22.43;71.53;99271.31;5092763;28;20095;-76
2023/08/02 11:10:45;;;;;;;1.77;0.60;;;;;;;22.23;71.04;99261.69;5094168;28;20145;-75
2023/08/02 11:13:11;;;;;;;3.80;0.90;;;;;;;22.13;73.10;99252.91;5096177;28;20028;-75
2023/08/02 11:15:36;;;;;;;1.25;0.70;;;;;;;22.09;73.29;99251.94;5089397;28;20031;-75
2023/08/02 11:18:03;;;;;;;3.50;0.88;;;;;;;22.07;74.67;99245.94;5066005;28;20035;-75
2023/08/02 11:20:32;;;;;;;3.08;0.70;;;;;;;22.13;74.03;99264.69;5091158;28;20111;-75
2023/08/02 11:22:57;;;;;;;3.25;0.85;;;;;;;22.08;73.88;99248.34;5082069;28;20027;-75
2023/08/02 11:25:23;;;;;;;6.03;0.90;;;;;;;22.72;70.74;99272.72;5068864;28;20046;-72